PWSweather.com
Personal Weather Stations
Station Observations
GEELONGWX1
Bell Post Hill, GeelongAU

Bell Post HillGeelongAU

Lat: -38.101, Lon: 144.326

Elevation: 204

Station Type: Davis Vantage Pro2

http://www.geelongweather.com

Latest ConditionsUpdated 8:50:01 PM GMT+10:10 Wednesday, Dec 12, 2018
Currently Today's Max Today's Min Today's Average
Temperature 66.1°F18.9°C 97.8°F36.6°C 57.2°F14.0°C 73.6°F23.1°C
Dew Point 62.8°F17.1°C 67.9°F19.9°C 46.4°F8.0°C 57.6°F14.2°C
Winds 1.2 mph E1.9 kmh E 17.3 mph -27.8 kmh - - 3.5 mph 5.6 kmh
Wind Gusts 3.5 mph5.6 kmh 25.3 mph40.7 kmh - -
Humidity 89% 90% 19% 65%
Pressure 29.67 in1004.7 mb 29.97 in1014.9 mb 29.63 in1003.4 mb -
Precipitation - 7.09 in180.1 mm - -
Hour Temp Dew Point Humidity Winds Wind Gusts Pressure Precip Precip Rate Daily Precip Total
08:50 PM 66.1°F18.9°C 62.8°F17.1°C 89% 1.2 mph E1.9 kmh E 3.5 mph5.6 kmh 29.67 in1004.7 mb - 0.00 in0.0 mm 7.09 in180.1 mm
08:40 PM 66.2°F19.0°C 62.8°F17.1°C 89% 1.2 mph WSW1.9 kmh WSW 2.3 mph3.7 kmh 29.68 in1005.1 mb - 0.00 in0.0 mm 7.09 in180.1 mm
08:30 PM 66.3°F19.1°C 63.0°F17.2°C 89% Calm Calm 1.2 mph1.9 kmh 29.68 in1005.1 mb - 0.00 in0.0 mm 7.09 in180.1 mm
08:20 PM 66.5°F19.2°C 63.2°F17.3°C 89% 1.2 mph SE1.9 kmh SE 3.5 mph5.6 kmh 29.68 in1005.1 mb - 0.00 in0.0 mm 7.09 in180.1 mm
08:10 PM 66.6°F19.2°C 63.3°F17.4°C 89% 1.2 mph SE1.9 kmh SE 3.5 mph5.6 kmh 29.68 in1005.1 mb - 0.00 in0.0 mm 7.09 in180.1 mm
08:00 PM 66.8°F19.3°C 63.5°F17.5°C 89% 3.5 mph SSE5.6 kmh SSE 3.5 mph5.6 kmh 29.69 in1005.4 mb - 0.00 in0.0 mm 7.09 in180.1 mm
07:50 PM 66.8°F19.3°C 63.5°F17.5°C 89% 5.8 mph SSE9.3 kmh SSE 9.2 mph14.8 kmh 29.69 in1005.4 mb - 0.00 in0.0 mm 7.09 in180.1 mm
07:40 PM 66.9°F19.4°C 63.6°F17.6°C 89% 5.8 mph S9.3 kmh S 8.1 mph13.0 kmh 29.68 in1005.1 mb - 0.02 in0.5 mm 7.09 in180.1 mm
07:30 PM 66.8°F19.3°C 63.5°F17.5°C 89% 6.9 mph S11.1 kmh S 10.4 mph16.7 kmh 29.70 in1005.8 mb - 1.98 in50.3 mm 7.08 in179.8 mm
07:20 PM 66.8°F19.3°C 63.1°F17.3°C 88% 3.5 mph S5.6 kmh S 3.5 mph5.6 kmh 29.70 in1005.8 mb - 2.24 in56.9 mm 5.31 in134.9 mm
07:10 PM 66.8°F19.3°C 63.1°F17.3°C 88% 5.8 mph S9.3 kmh S 10.4 mph16.7 kmh 29.69 in1005.4 mb - 2.24 in56.9 mm 3.28 in83.3 mm
07:00 PM 66.8°F19.3°C 63.1°F17.3°C 88% 10.4 mph SSW16.7 kmh SSW 13.8 mph22.2 kmh 29.68 in1005.1 mb - 1.13 in28.7 mm 1.25 in31.8 mm
06:50 PM 67.0°F19.4°C 63.4°F17.4°C 88% 13.8 mph SSW22.2 kmh SSW 16.1 mph25.9 kmh 29.68 in1005.1 mb - 0.00 in0.0 mm 0.12 in3.0 mm
06:40 PM 67.2°F19.6°C 63.2°F17.3°C 87% 9.2 mph SSW14.8 kmh SSW 13.8 mph22.2 kmh 29.68 in1005.1 mb - 0.03 in0.8 mm 0.12 in3.0 mm
06:30 PM 67.6°F19.8°C 63.3°F17.4°C 86% 10.4 mph SSW16.7 kmh SSW 16.1 mph25.9 kmh 29.70 in1005.8 mb - 0.02 in0.5 mm 0.11 in2.8 mm
06:20 PM 68.0°F20.0°C 63.3°F17.4°C 85% 9.2 mph S14.8 kmh S 12.7 mph20.4 kmh 29.70 in1005.8 mb - 0.03 in0.8 mm 0.09 in2.3 mm
06:10 PM 68.4°F20.2°C 63.1°F17.3°C 83% 12.7 mph S20.4 kmh S 17.3 mph27.8 kmh 29.70 in1005.8 mb - 0.03 in0.8 mm 0.05 in1.3 mm
06:00 PM 69.2°F20.7°C 63.1°F17.3°C 81% 11.5 mph S18.5 kmh S 18.4 mph29.6 kmh 29.71 in1006.1 mb - 0.02 in0.5 mm 0.03 in0.8 mm
05:50 PM 70.7°F21.5°C 62.8°F17.1°C 76% 11.5 mph SSW18.5 kmh SSW 19.6 mph31.5 kmh 29.72 in1006.4 mb - 0.00 in0.0 mm 0.01 in0.3 mm
05:40 PM 74.9°F23.8°C 63.6°F17.6°C 68% 17.3 mph SW27.8 kmh SW 25.3 mph40.7 kmh 29.70 in1005.8 mb - 0.00 in0.0 mm 0.01 in0.3 mm
05:30 PM 80.2°F26.8°C 63.6°F17.6°C 57% 11.5 mph WSW18.5 kmh WSW 21.9 mph35.2 kmh 29.68 in1005.1 mb - 0.00 in0.0 mm 0.01 in0.3 mm
05:20 PM 82.6°F28.1°C 64.8°F18.2°C 55% 1.2 mph E1.9 kmh E 3.5 mph5.6 kmh 29.65 in1004.1 mb - 0.00 in0.0 mm 0.01 in0.3 mm
05:10 PM 83.4°F28.6°C 63.4°F17.4°C 51% 2.3 mph NNW3.7 kmh NNW 3.5 mph5.6 kmh 29.64 in1003.7 mb - 0.01 in0.3 mm 0.01 in0.3 mm
05:00 PM 84.5°F29.2°C 56.8°F13.8°C 39% 4.6 mph N7.4 kmh N 6.9 mph11.1 kmh 29.63 in1003.4 mb - 0.00 in0.0 mm 0.00 in0.0 mm
04:50 PM 85.0°F29.4°C 55.8°F13.2°C 37% 6.9 mph NNE11.1 kmh NNE 10.4 mph16.7 kmh 29.63 in1003.4 mb - 0.00 in0.0 mm 0.00 in0.0 mm
04:40 PM 85.6°F29.8°C 54.0°F12.2°C 34% 5.8 mph NNE9.3 kmh NNE 9.2 mph14.8 kmh 29.63 in1003.4 mb - 0.00 in0.0 mm 0.00 in0.0 mm
04:30 PM 86.3°F30.2°C 54.6°F12.6°C 34% 6.9 mph NNE11.1 kmh NNE 10.4 mph16.7 kmh 29.63 in1003.4 mb - 0.00 in0.0 mm 0.00 in0.0 mm
04:20 PM 87.4°F30.8°C 54.7°F12.6°C 33% 6.9 mph NNE11.1 kmh NNE 13.8 mph22.2 kmh 29.63 in1003.4 mb - 0.00 in0.0 mm 0.00 in0.0 mm
04:10 PM 88.3°F31.3°C 54.7°F12.6°C 32% 6.9 mph N11.1 kmh N 12.7 mph20.4 kmh 29.63 in1003.4 mb - 0.00 in0.0 mm 0.00 in0.0 mm
04:00 PM 89.3°F31.8°C 53.8°F12.1°C 30% 10.4 mph NNE16.7 kmh NNE 17.3 mph27.8 kmh 29.63 in1003.4 mb - 0.00 in0.0 mm 0.00 in0.0 mm
03:50 PM 90.4°F32.4°C 55.7°F13.2°C 31% 8.1 mph N13.0 kmh N 11.5 mph18.5 kmh 29.64 in1003.7 mb - 0.00 in0.0 mm 0.00 in0.0 mm
03:40 PM 90.9°F32.7°C 56.1°F13.4°C 31% 6.9 mph N11.1 kmh N 12.7 mph20.4 kmh 29.64 in1003.7 mb - 0.00 in0.0 mm 0.00 in0.0 mm
03:30 PM 91.4°F33.0°C 56.5°F13.6°C 31% 6.9 mph N11.1 kmh N 10.4 mph16.7 kmh 29.65 in1004.1 mb - 0.00 in0.0 mm 0.00 in0.0 mm
03:20 PM 91.2°F32.9°C 48.2°F9.0°C 23% 4.6 mph NNE7.4 kmh NNE 10.4 mph16.7 kmh 29.65 in1004.1 mb - 0.00 in0.0 mm 0.00 in0.0 mm
03:10 PM 91.5°F33.1°C 54.8°F12.7°C 29% 4.6 mph N7.4 kmh N 6.9 mph11.1 kmh 29.66 in1004.4 mb - 0.00 in0.0 mm 0.00 in0.0 mm
03:00 PM 92.3°F33.5°C 56.3°F13.5°C 30% 2.3 mph N3.7 kmh N 3.5 mph5.6 kmh 29.67 in1004.7 mb - 0.00 in0.0 mm 0.00 in0.0 mm
02:50 PM 93.7°F34.3°C 56.6°F13.7°C 29% 3.5 mph NE5.6 kmh NE 8.1 mph13.0 kmh 29.67 in1004.7 mb - 0.00 in0.0 mm 0.00 in0.0 mm
02:40 PM 94.1°F34.5°C 48.2°F9.0°C 21% 6.9 mph N11.1 kmh N 6.9 mph11.1 kmh 29.68 in1005.1 mb - 0.00 in0.0 mm 0.00 in0.0 mm
02:30 PM 94.0°F34.4°C 48.1°F8.9°C 21% 3.5 mph NNW5.6 kmh NNW 5.8 mph9.3 kmh 29.68 in1005.1 mb - 0.00 in0.0 mm 0.00 in0.0 mm
02:20 PM 93.9°F34.4°C 46.8°F8.2°C 20% 3.5 mph NNW5.6 kmh NNW 4.6 mph7.4 kmh 29.69 in1005.4 mb - 0.00 in0.0 mm 0.00 in0.0 mm
02:10 PM 94.3°F34.6°C 47.1°F8.4°C 20% 2.3 mph NW3.7 kmh NW 3.5 mph5.6 kmh 29.69 in1005.4 mb - 0.00 in0.0 mm 0.00 in0.0 mm
02:00 PM 94.7°F34.8°C 47.4°F8.6°C 20% 3.5 mph WNW5.6 kmh WNW 4.6 mph7.4 kmh 29.70 in1005.8 mb - 0.00 in0.0 mm 0.00 in0.0 mm
01:50 PM 95.1°F35.1°C 46.4°F8.0°C 19% 2.3 mph W3.7 kmh W 3.5 mph5.6 kmh 29.70 in1005.8 mb - 0.00 in0.0 mm 0.00 in0.0 mm
01:40 PM 95.7°F35.4°C 46.9°F8.3°C 19% 3.5 mph NNW5.6 kmh NNW 6.9 mph11.1 kmh 29.71 in1006.1 mb - 0.00 in0.0 mm 0.00 in0.0 mm
01:30 PM 96.4°F35.8°C 47.4°F8.6°C 19% 3.5 mph WSW5.6 kmh WSW 5.8 mph9.3 kmh 29.71 in1006.1 mb - 0.00 in0.0 mm 0.00 in0.0 mm
01:20 PM 97.2°F36.2°C 48.1°F8.9°C 19% 5.8 mph NW9.3 kmh NW 9.2 mph14.8 kmh 29.72 in1006.4 mb - 0.00 in0.0 mm 0.00 in0.0 mm
01:10 PM 97.6°F36.4°C 49.8°F9.9°C 20% 3.5 mph NW5.6 kmh NW 4.6 mph7.4 kmh 29.72 in1006.4 mb - 0.00 in0.0 mm 0.00 in0.0 mm
01:00 PM 97.8°F36.6°C 51.3°F10.7°C 21% 8.1 mph N13.0 kmh N 11.5 mph18.5 kmh 29.73 in1006.8 mb - 0.00 in0.0 mm 0.00 in0.0 mm
12:50 PM 97.4°F36.3°C 50.9°F10.5°C 21% 4.6 mph NNW7.4 kmh NNW 8.1 mph13.0 kmh 29.73 in1006.8 mb - 0.00 in0.0 mm 0.00 in0.0 mm
12:40 PM 96.1°F35.6°C 51.1°F10.6°C 22% 3.5 mph W5.6 kmh W 3.5 mph5.6 kmh 29.74 in1007.1 mb - 0.00 in0.0 mm 0.00 in0.0 mm
12:30 PM 94.6°F34.8°C 49.8°F9.9°C 22% 4.6 mph WSW7.4 kmh WSW 6.9 mph11.1 kmh 29.74 in1007.1 mb - 0.00 in0.0 mm 0.00 in0.0 mm
12:20 PM 94.3°F34.6°C 50.8°F10.4°C 23% 4.6 mph N7.4 kmh N 11.5 mph18.5 kmh 29.75 in1007.5 mb - 0.00 in0.0 mm 0.00 in0.0 mm
12:10 PM 93.7°F34.3°C 52.6°F11.4°C 25% 5.8 mph WSW9.3 kmh WSW 11.5 mph18.5 kmh 29.75 in1007.5 mb - 0.00 in0.0 mm 0.00 in0.0 mm
12:00 PM 93.5°F34.2°C 51.3°F10.7°C 24% 4.6 mph WNW7.4 kmh WNW 5.8 mph9.3 kmh 29.75 in1007.5 mb - 0.00 in0.0 mm 0.00 in0.0 mm
11:50 AM 93.4°F34.1°C 53.4°F11.9°C 26% 2.3 mph SW3.7 kmh SW 3.5 mph5.6 kmh 29.76 in1007.8 mb - 0.00 in0.0 mm 0.00 in0.0 mm
11:40 AM 92.9°F33.8°C 53.0°F11.7°C 26% 3.5 mph NNW5.6 kmh NNW 6.9 mph11.1 kmh 29.77 in1008.1 mb - 0.00 in0.0 mm 0.00 in0.0 mm
11:30 AM 92.9°F33.8°C 56.9°F13.8°C 30% 3.5 mph N5.6 kmh N 4.6 mph7.4 kmh 29.77 in1008.1 mb - 0.00 in0.0 mm 0.00 in0.0 mm
11:20 AM 91.6°F33.1°C 59.2°F15.1°C 34% 2.3 mph SSE3.7 kmh SSE 3.5 mph5.6 kmh 29.78 in1008.5 mb - 0.00 in0.0 mm 0.00 in0.0 mm
11:10 AM 90.2°F32.3°C 63.3°F17.4°C 41% 1.2 mph NE1.9 kmh NE 3.5 mph5.6 kmh 29.79 in1008.8 mb - 0.00 in0.0 mm 0.00 in0.0 mm
11:00 AM 88.8°F31.6°C 64.1°F17.8°C 44% 2.3 mph NE3.7 kmh NE 3.5 mph5.6 kmh 29.80 in1009.1 mb - 0.00 in0.0 mm 0.00 in0.0 mm
10:50 AM 87.2°F30.7°C 65.7°F18.7°C 49% 2.3 mph E3.7 kmh E 2.3 mph3.7 kmh 29.80 in1009.1 mb - 0.00 in0.0 mm 0.00 in0.0 mm
10:40 AM 85.6°F29.8°C 67.1°F19.5°C 54% 3.5 mph E5.6 kmh E 5.8 mph9.3 kmh 29.80 in1009.1 mb - 0.00 in0.0 mm 0.00 in0.0 mm
10:30 AM 84.5°F29.2°C 66.0°F18.9°C 54% 3.5 mph NE5.6 kmh NE 3.5 mph5.6 kmh 29.81 in1009.5 mb - 0.00 in0.0 mm 0.00 in0.0 mm
10:20 AM 83.3°F28.5°C 66.5°F19.2°C 57% 2.3 mph E3.7 kmh E 3.5 mph5.6 kmh 29.81 in1009.5 mb - 0.00 in0.0 mm 0.00 in0.0 mm
10:10 AM 81.8°F27.7°C 67.9°F19.9°C 63% Calm Calm -- 29.82 in1009.8 mb - 0.00 in0.0 mm 0.00 in0.0 mm
10:00 AM 80.1°F26.7°C 66.8°F19.3°C 64% 3.5 mph E5.6 kmh E 4.6 mph7.4 kmh 29.82 in1009.8 mb - 0.00 in0.0 mm 0.00 in0.0 mm
09:50 AM 78.5°F25.8°C 66.6°F19.2°C 67% 3.5 mph E5.6 kmh E 3.5 mph5.6 kmh 29.82 in1009.8 mb - 0.00 in0.0 mm 0.00 in0.0 mm
09:40 AM 77.0°F25.0°C 65.6°F18.7°C 68% 3.5 mph ENE5.6 kmh ENE 5.8 mph9.3 kmh 29.83 in1010.2 mb - 0.00 in0.0 mm 0.00 in0.0 mm
09:30 AM 75.8°F24.3°C 65.3°F18.5°C 70% 2.3 mph NE3.7 kmh NE 3.5 mph5.6 kmh 29.83 in1010.2 mb - 0.00 in0.0 mm 0.00 in0.0 mm
09:20 AM 74.7°F23.7°C 63.9°F17.7°C 69% 4.6 mph NE7.4 kmh NE 4.6 mph7.4 kmh 29.84 in1010.5 mb - 0.00 in0.0 mm 0.00 in0.0 mm
09:10 AM 74.2°F23.4°C 63.0°F17.2°C 68% 3.5 mph NE5.6 kmh NE 6.9 mph11.1 kmh 29.84 in1010.5 mb - 0.00 in0.0 mm 0.00 in0.0 mm
09:00 AM 73.8°F23.2°C 63.0°F17.2°C 69% 2.3 mph E3.7 kmh E 3.5 mph5.6 kmh 29.85 in1010.8 mb - 0.00 in0.0 mm 0.00 in0.0 mm
08:50 AM 73.1°F22.8°C 62.7°F17.1°C 70% 1.2 mph N1.9 kmh N 2.3 mph3.7 kmh 29.85 in1010.8 mb - 0.00 in0.0 mm 0.00 in0.0 mm
08:40 AM 72.0°F22.2°C 62.9°F17.2°C 73% 2.3 mph NE3.7 kmh NE 3.5 mph5.6 kmh 29.86 in1011.2 mb - 0.00 in0.0 mm 0.00 in0.0 mm
08:30 AM 70.7°F21.5°C 62.4°F16.9°C 75% 3.5 mph NE5.6 kmh NE 3.5 mph5.6 kmh 29.86 in1011.2 mb - 0.00 in0.0 mm 0.00 in0.0 mm
08:20 AM 69.2°F20.7°C 62.0°F16.7°C 78% 2.3 mph NE3.7 kmh NE 3.5 mph5.6 kmh 29.86 in1011.2 mb - 0.00 in0.0 mm 0.00 in0.0 mm
08:10 AM 68.4°F20.2°C 61.6°F16.4°C 79% 3.5 mph NE5.6 kmh NE 4.6 mph7.4 kmh 29.87 in1011.5 mb - 0.00 in0.0 mm 0.00 in0.0 mm
08:00 AM 67.6°F19.8°C 60.9°F16.1°C 79% 3.5 mph NE5.6 kmh NE 4.6 mph7.4 kmh 29.87 in1011.5 mb - 0.00 in0.0 mm 0.00 in0.0 mm
07:50 AM 66.8°F19.3°C 60.8°F16.0°C 81% 2.3 mph NNE3.7 kmh NNE 3.5 mph5.6 kmh 29.87 in1011.5 mb - 0.00 in0.0 mm 0.00 in0.0 mm
07:40 AM 66.1°F18.9°C 60.7°F15.9°C 83% 2.3 mph N3.7 kmh N 5.8 mph9.3 kmh 29.88 in1011.9 mb - 0.00 in0.0 mm 0.00 in0.0 mm
07:30 AM 64.8°F18.2°C 60.8°F16.0°C 87% 2.3 mph N3.7 kmh N 3.5 mph5.6 kmh 29.88 in1011.9 mb - 0.00 in0.0 mm 0.00 in0.0 mm
07:20 AM 63.4°F17.4°C 60.1°F15.6°C 89% 2.3 mph N3.7 kmh N 4.6 mph7.4 kmh 29.88 in1011.9 mb - 0.00 in0.0 mm 0.00 in0.0 mm
07:10 AM 62.1°F16.7°C 58.8°F14.9°C 89% 2.3 mph 3.7 kmh 3.5 mph5.6 kmh 29.88 in1011.9 mb - 0.00 in0.0 mm 0.00 in0.0 mm
07:00 AM 61.3°F16.3°C 58.0°F14.4°C 89% 1.2 mph N1.9 kmh N 3.5 mph5.6 kmh 29.88 in1011.9 mb - 0.00 in0.0 mm 0.00 in0.0 mm
06:50 AM 60.8°F16.0°C 57.5°F14.2°C 89% 1.2 mph N1.9 kmh N 1.2 mph1.9 kmh 29.88 in1011.9 mb - 0.00 in0.0 mm 0.00 in0.0 mm
06:40 AM 60.5°F15.8°C 57.5°F14.2°C 90% Calm Calm 1.2 mph1.9 kmh 29.89 in1012.2 mb - 0.00 in0.0 mm 0.00 in0.0 mm
06:30 AM 60.1°F15.6°C 57.2°F14.0°C 90% Calm Calm -- 29.88 in1011.9 mb - 0.00 in0.0 mm 0.00 in0.0 mm
06:20 AM 59.6°F15.3°C 56.7°F13.7°C 90% Calm Calm -- 29.88 in1011.9 mb - 0.00 in0.0 mm 0.00 in0.0 mm
06:10 AM 59.1°F15.1°C 55.9°F13.3°C 89% Calm Calm -- 29.89 in1012.2 mb - 0.00 in0.0 mm 0.00 in0.0 mm
06:00 AM 58.7°F14.8°C 55.5°F13.1°C 89% Calm Calm -- 29.89 in1012.2 mb - 0.00 in0.0 mm 0.00 in0.0 mm
05:50 AM 58.0°F14.4°C 54.8°F12.7°C 89% 1.2 mph S1.9 kmh S 1.2 mph1.9 kmh 29.89 in1012.2 mb - 0.00 in0.0 mm 0.00 in0.0 mm
05:40 AM 57.4°F14.1°C 53.9°F12.2°C 88% 1.2 mph S1.9 kmh S 1.2 mph1.9 kmh 29.89 in1012.2 mb - 0.00 in0.0 mm 0.00 in0.0 mm
05:30 AM 57.2°F14.0°C 53.3°F11.8°C 87% 1.2 mph S1.9 kmh S 2.3 mph3.7 kmh 29.89 in1012.2 mb - 0.00 in0.0 mm 0.00 in0.0 mm
05:20 AM 57.2°F14.0°C 53.4°F11.9°C 87% 1.2 mph S1.9 kmh S 2.3 mph3.7 kmh 29.90 in1012.5 mb - 0.00 in0.0 mm 0.00 in0.0 mm
05:10 AM 57.4°F14.1°C 53.6°F12.0°C 87% 1.2 mph S1.9 kmh S 2.3 mph3.7 kmh 29.90 in1012.5 mb - 0.00 in0.0 mm 0.00 in0.0 mm
05:00 AM 57.7°F14.3°C 53.9°F12.2°C 87% 1.2 mph SSW1.9 kmh SSW 2.3 mph3.7 kmh 29.90 in1012.5 mb - 0.00 in0.0 mm 0.00 in0.0 mm
04:50 AM 57.9°F14.4°C 54.1°F12.3°C 87% 1.2 mph SSW1.9 kmh SSW 2.3 mph3.7 kmh 29.90 in1012.5 mb - 0.00 in0.0 mm 0.00 in0.0 mm
04:40 AM 57.8°F14.3°C 53.7°F12.1°C 86% Calm Calm 1.2 mph1.9 kmh 29.89 in1012.2 mb - 0.00 in0.0 mm 0.00 in0.0 mm
04:30 AM 57.9°F14.4°C 53.7°F12.1°C 86% Calm Calm 1.2 mph1.9 kmh 29.89 in1012.2 mb - 0.00 in0.0 mm 0.00 in0.0 mm
04:20 AM 58.0°F14.4°C 53.8°F12.1°C 86% Calm Calm 1.2 mph1.9 kmh 29.89 in1012.2 mb - 0.00 in0.0 mm 0.00 in0.0 mm
04:10 AM 58.0°F14.4°C 53.8°F12.1°C 86% Calm Calm -- 29.90 in1012.5 mb - 0.00 in0.0 mm 0.00 in0.0 mm
04:00 AM 58.0°F14.4°C 53.8°F12.1°C 86% Calm Calm 1.2 mph1.9 kmh 29.89 in1012.2 mb - 0.00 in0.0 mm 0.00 in0.0 mm
03:50 AM 58.0°F14.4°C 53.5°F11.9°C 85% 1.2 mph SSE1.9 kmh SSE 1.2 mph1.9 kmh 29.90 in1012.5 mb - 0.00 in0.0 mm 0.00 in0.0 mm
03:40 AM 58.2°F14.6°C 53.7°F12.1°C 85% 1.2 mph S1.9 kmh S 2.3 mph3.7 kmh 29.90 in1012.5 mb - 0.00 in0.0 mm 0.00 in0.0 mm
03:30 AM 58.4°F14.7°C 53.9°F12.2°C 85% 1.2 mph S1.9 kmh S 1.2 mph1.9 kmh 29.91 in1012.9 mb - 0.00 in0.0 mm 0.00 in0.0 mm
03:20 AM 58.6°F14.8°C 54.1°F12.3°C 85% 1.2 mph S1.9 kmh S 2.3 mph3.7 kmh 29.91 in1012.9 mb - 0.00 in0.0 mm 0.00 in0.0 mm
03:10 AM 58.8°F14.9°C 54.3°F12.4°C 85% Calm Calm 1.2 mph1.9 kmh 29.92 in1013.2 mb - 0.00 in0.0 mm 0.00 in0.0 mm
03:00 AM 59.1°F15.1°C 54.6°F12.6°C 85% 1.2 mph S1.9 kmh S 1.2 mph1.9 kmh 29.91 in1012.9 mb - 0.00 in0.0 mm 0.00 in0.0 mm
02:50 AM 59.5°F15.3°C 55.0°F12.8°C 85% 1.2 mph S1.9 kmh S 2.3 mph3.7 kmh 29.91 in1012.9 mb - 0.00 in0.0 mm 0.00 in0.0 mm
02:40 AM 59.9°F15.5°C 55.7°F13.2°C 86% 1.2 mph SE1.9 kmh SE 2.3 mph3.7 kmh 29.92 in1013.2 mb - 0.00 in0.0 mm 0.00 in0.0 mm
02:30 AM 60.1°F15.6°C 55.5°F13.1°C 85% Calm Calm 1.2 mph1.9 kmh 29.93 in1013.5 mb - 0.00 in0.0 mm 0.00 in0.0 mm
02:20 AM 60.1°F15.6°C 55.6°F13.1°C 85% Calm Calm 1.2 mph1.9 kmh 29.93 in1013.5 mb - 0.00 in0.0 mm 0.00 in0.0 mm
02:10 AM 60.2°F15.7°C 55.7°F13.2°C 85% 1.2 mph E1.9 kmh E 2.3 mph3.7 kmh 29.92 in1013.2 mb - 0.00 in0.0 mm 0.00 in0.0 mm
02:00 AM 60.4°F15.8°C 55.9°F13.3°C 85% 1.2 mph E1.9 kmh E 3.5 mph5.6 kmh 29.93 in1013.5 mb - 0.00 in0.0 mm 0.00 in0.0 mm
01:50 AM 60.6°F15.9°C 56.1°F13.4°C 85% Calm Calm 2.3 mph3.7 kmh 29.93 in1013.5 mb - 0.00 in0.0 mm 0.00 in0.0 mm
01:40 AM 60.8°F16.0°C 56.2°F13.4°C 85% 1.2 mph ESE1.9 kmh ESE 2.3 mph3.7 kmh 29.93 in1013.5 mb - 0.00 in0.0 mm 0.00 in0.0 mm
01:30 AM 60.9°F16.1°C 56.4°F13.6°C 85% 1.2 mph E1.9 kmh E 2.3 mph3.7 kmh 29.92 in1013.2 mb - 0.00 in0.0 mm 0.00 in0.0 mm
01:20 AM 61.1°F16.2°C 56.6°F13.7°C 85% 1.2 mph E1.9 kmh E 3.5 mph5.6 kmh 29.93 in1013.5 mb - 0.00 in0.0 mm 0.00 in0.0 mm
01:10 AM 61.3°F16.3°C 56.8°F13.8°C 85% 1.2 mph E1.9 kmh E 1.2 mph1.9 kmh 29.93 in1013.5 mb - 0.00 in0.0 mm 0.00 in0.0 mm
01:00 AM 61.5°F16.4°C 56.9°F13.8°C 85% 2.3 mph E3.7 kmh E 3.5 mph5.6 kmh 29.94 in1013.9 mb - 0.00 in0.0 mm 0.00 in0.0 mm
12:50 AM 61.6°F16.4°C 57.0°F13.9°C 85% 1.2 mph E1.9 kmh E 3.5 mph5.6 kmh 29.95 in1014.2 mb - 0.00 in0.0 mm 0.00 in0.0 mm
12:40 AM 61.7°F16.5°C 57.1°F13.9°C 85% 2.3 mph ENE3.7 kmh ENE 3.5 mph5.6 kmh 29.96 in1014.6 mb - 0.00 in0.0 mm 0.00 in0.0 mm
12:30 AM 61.7°F16.5°C 57.1°F13.9°C 85% 2.3 mph NE3.7 kmh NE 5.8 mph9.3 kmh 29.96 in1014.6 mb - 0.00 in0.0 mm 0.00 in0.0 mm
12:20 AM 61.7°F16.5°C 57.5°F14.2°C 86% 1.2 mph NE1.9 kmh NE 3.5 mph5.6 kmh 29.96 in1014.6 mb - 0.00 in0.0 mm 0.00 in0.0 mm
12:10 AM 61.6°F16.4°C 57.3°F14.1°C 86% 3.5 mph NE5.6 kmh NE 6.9 mph11.1 kmh 29.96 in1014.6 mb - 0.00 in0.0 mm 0.00 in0.0 mm
12:00 AM 61.3°F16.3°C 57.1°F13.9°C 86% 3.5 mph NE5.6 kmh NE 4.6 mph7.4 kmh 29.97 in1014.9 mb - 0.00 in0.0 mm 0.00 in0.0 mm